Terminal Aerodrome Forecast
Issued by NWS Lake Charles, LA

Home | Current Version | Previous Version | Text Only | Print | Product List | Glossary On
Versions: 1 2 3 4 5 6 7 8 9 10 11 12 13 14 15 16 17 18 19 20 21 22 23 24 25 26 27 28 29 30 31 32
000
FTUS44 KLCH 171121
TAFLFT
TAF
KLFT 171121Z 1712/1812 VRB04KT P6SM VCSH SCT025 BKN080
     FM171300 18007KT P6SM VCTS SCT025CB BKN040
      TEMPO 1713/1716 VRB07G15KT 4SM SHRA BKN025
     FM171800 20011KT P6SM VCTS SCT025CB BKN040
      TEMPO 1718/1722 VRB15G25KT 3SM -TSRA BKN025CB OVC050
     FM180000 VRB05KT P6SM VCTS SCT030CB OVC250
     FM180300 VRB03KT P6SM BKN250=

USA.gov is the U.S. government's official web portal to all federal, state and local government web resources and services.